createdAt,value
2019-02-27T00:02:02.555Z,89.83
2019-02-27T00:04:35.553Z,90.16
2019-02-27T00:07:07.597Z,91.06
2019-02-27T00:09:39.481Z,91.06
2019-02-27T00:12:11.100Z,90.51
2019-02-27T00:14:42.969Z,90.66
2019-02-27T00:17:15.142Z,90.02
2019-02-27T00:19:47.956Z,89.70
2019-02-27T00:22:20.246Z,89.70
2019-02-27T00:24:52.438Z,90.56
2019-02-27T00:27:23.826Z,90.87
2019-02-27T00:29:55.626Z,90.62
2019-02-27T00:32:27.382Z,90.63
2019-02-27T00:34:58.859Z,91.00
2019-02-27T00:37:30.427Z,91.29
2019-02-27T00:40:05.387Z,91.29
2019-02-27T00:42:35.272Z,90.96
2019-02-27T00:45:07.695Z,91.20
2019-02-27T00:47:39.605Z,91.43
2019-02-27T00:50:12.386Z,91.29
2019-02-27T00:52:45.401Z,91.06
2019-02-27T00:55:16.775Z,91.06
2019-02-27T00:57:48.531Z,91.14
2019-02-27T01:00:20.597Z,90.50
2019-02-27T01:02:53.452Z,91.12
2019-02-27T01:05:25.458Z,91.12
2019-02-27T01:07:59.260Z,90.25
2019-02-27T01:10:31.093Z,90.39
2019-02-27T01:13:02.907Z,90.42
2019-02-27T01:15:34.858Z,90.22
2019-02-27T01:18:06.609Z,90.99
2019-02-27T01:20:38.320Z,90.99
2019-02-27T01:23:11.073Z,90.19
2019-02-27T01:25:43.604Z,90.47
2019-02-27T01:28:15.324Z,90.47
2019-02-27T01:30:47.055Z,90.66
2019-02-27T01:33:19.324Z,90.80
2019-02-27T01:35:52.273Z,90.87
2019-02-27T01:38:24.019Z,90.57
2019-02-27T01:40:58.723Z,90.57
2019-02-27T01:43:30.463Z,90.21
2019-02-27T01:46:02.556Z,90.21
2019-02-27T01:48:34.656Z,90.64
2019-02-27T01:51:06.531Z,89.73
2019-02-27T01:53:40.496Z,89.01
2019-02-27T01:56:13.213Z,89.01
2019-02-27T01:58:44.727Z,89.73
2019-02-27T02:01:16.687Z,89.00
2019-02-27T02:03:49.045Z,88.72
2019-02-27T02:06:20.691Z,87.99
2019-02-27T02:09:09.914Z,87.99
2019-02-27T02:11:43.656Z,88.20
2019-02-27T02:14:48.514Z,87.37
2019-02-27T02:17:47.043Z,87.37
2019-02-27T02:20:38.691Z,86.19
2019-02-27T02:23:49.710Z,86.46
2019-02-27T02:27:07.996Z,86.74
2019-02-27T02:30:34.787Z,86.74
2019-02-27T02:33:43.639Z,85.89
2019-02-27T02:36:38.358Z,85.89
2019-02-27T02:39:38.408Z,84.75
2019-02-27T02:42:41.938Z,84.21
2019-02-27T02:45:32.729Z,83.62
2019-02-27T02:48:32.340Z,83.13
2019-02-27T02:51:47.878Z,82.97
2019-02-27T02:55:14.749Z,82.97
2019-02-27T02:58:32.778Z,83.12
2019-02-27T03:01:15.236Z,83.12
2019-02-27T03:04:05.668Z,74.67
2019-02-27T03:07:13.517Z,74.37
2019-02-27T03:10:18.116Z,74.37
2019-02-27T03:13:33.389Z,75.07
2019-02-27T03:16:42.373Z,74.97
2019-02-27T03:19:43.148Z,75.36
2019-02-27T03:23:04.701Z,75.36
2019-02-27T03:25:58.055Z,75.24
2019-02-27T03:29:16.068Z,75.56
2019-02-27T03:32:05.233Z,75.56
2019-02-27T03:35:09.126Z,74.90
2019-02-27T03:38:05.762Z,74.90
2019-02-27T03:41:22.484Z,75.47
2019-02-27T03:44:20.707Z,75.47
2019-02-27T03:47:24.752Z,74.29
2019-02-27T03:50:25.697Z,74.29
2019-02-27T03:53:18.224Z,74.20
2019-02-27T03:56:12.586Z,74.20
2019-02-27T03:59:06.323Z,73.93
2019-02-27T04:02:11.060Z,73.59
2019-02-27T04:05:21.264Z,76.20
2019-02-27T04:08:29.338Z,76.20
2019-02-27T04:11:05.543Z,74.52
2019-02-27T04:13:34.243Z,74.34
2019-02-27T04:16:05.685Z,74.68
2019-02-27T04:18:34.747Z,75.19
2019-02-27T04:21:06.869Z,75.67
2019-02-27T04:23:38.571Z,74.48
2019-02-27T04:26:10.292Z,75.08
2019-02-27T04:28:41.894Z,75.24
2019-02-27T04:31:13.766Z,74.83
2019-02-27T04:33:45.607Z,75.33
2019-02-27T04:36:18.706Z,75.33
2019-02-27T04:38:50.281Z,74.49
2019-02-27T04:41:22.206Z,74.49
2019-02-27T04:43:53.862Z,73.98
2019-02-27T04:46:25.416Z,73.72
2019-02-27T04:48:57.187Z,73.58
2019-02-27T04:51:28.807Z,73.58
2019-02-27T04:54:00.382Z,76.15
2019-02-27T04:56:31.858Z,76.15
2019-02-27T04:59:03.591Z,75.59
2019-02-27T05:01:36.664Z,75.42
2019-02-27T05:04:08.547Z,75.27
2019-02-27T05:06:40.236Z,75.27
2019-02-27T05:09:13.088Z,74.32
2019-02-27T05:11:47.566Z,74.60
2019-02-27T05:14:18.144Z,74.94
2019-02-27T05:16:49.715Z,74.32
2019-02-27T05:19:22.449Z,74.90
2019-02-27T05:21:54.023Z,74.50
2019-02-27T05:24:27.501Z,74.06
2019-02-27T05:27:00.833Z,73.74
2019-02-27T05:29:32.525Z,73.65
2019-02-27T05:32:04.047Z,74.12
2019-02-27T05:34:35.719Z,74.65
2019-02-27T05:37:07.200Z,74.86
2019-02-27T05:39:38.832Z,75.01
2019-02-27T05:42:10.499Z,73.98
2019-02-27T05:44:42.464Z,73.71
2019-02-27T05:47:14.179Z,73.09
2019-02-27T05:49:45.583Z,72.54
2019-02-27T05:52:17.030Z,71.85
2019-02-27T05:54:48.804Z,71.89
2019-02-27T05:57:23.258Z,72.26
2019-02-27T05:59:54.642Z,72.81
2019-02-27T06:02:26.393Z,72.93
2019-02-27T06:05:00.578Z,72.93
2019-02-27T06:07:32.274Z,72.13
2019-02-27T06:10:04.029Z,72.13
2019-02-27T06:12:39.992Z,72.09
2019-02-27T06:15:11.135Z,72.08
2019-02-27T06:17:43.760Z,72.17
2019-02-27T06:20:17.140Z,71.81
2019-02-27T06:22:49.015Z,72.07
2019-02-27T06:25:23.377Z,71.74
2019-02-27T06:27:54.077Z,71.82
2019-02-27T06:30:30.324Z,71.75
2019-02-27T06:32:59.296Z,70.60
2019-02-27T06:35:34.174Z,70.21
2019-02-27T06:38:04.836Z,70.14
2019-02-27T06:40:36.501Z,70.74
2019-02-27T06:43:08.639Z,70.79
2019-02-27T06:45:45.190Z,69.69
2019-02-27T06:48:14.626Z,69.69
2019-02-27T06:50:46.272Z,69.60
2019-02-27T06:53:19.901Z,70.50
2019-02-27T06:55:52.114Z,70.43
2019-02-27T06:58:24.287Z,69.55
2019-02-27T07:00:56.300Z,68.12
2019-02-27T07:03:30.955Z,68.06
2019-02-27T07:06:03.176Z,68.06
2019-02-27T07:08:38.183Z,67.87
2019-02-27T07:11:11.369Z,68.12
2019-02-27T07:13:44.501Z,68.12
2019-02-27T07:16:17.030Z,68.57
2019-02-27T07:18:48.946Z,68.16
2019-02-27T07:21:21.869Z,67.98
2019-02-27T07:23:57.727Z,67.98
2019-02-27T07:26:27.944Z,68.87
2019-02-27T07:29:00.068Z,68.84
2019-02-27T07:31:35.207Z,68.55
2019-02-27T07:34:06.889Z,68.55
2019-02-27T07:36:50.685Z,65.67
2019-02-27T07:39:23.850Z,65.67
2019-02-27T07:41:56.372Z,66.70
2019-02-27T07:44:29.043Z,67.02
2019-02-27T07:47:02.799Z,67.47
2019-02-27T07:49:36.167Z,68.47
2019-02-27T07:52:08.468Z,69.53
2019-02-27T07:54:45.042Z,68.96
2019-02-27T07:57:17.620Z,68.96
2019-02-27T07:59:54.895Z,66.39
2019-02-27T08:02:27.548Z,68.48
2019-02-27T08:05:01.183Z,67.50
2019-02-27T08:07:43.294Z,67.36
2019-02-27T08:10:19.089Z,67.36
2019-02-27T08:12:55.572Z,66.65
2019-02-27T08:15:27.475Z,66.69
2019-02-27T08:18:04.698Z,67.85
2019-02-27T08:20:37.192Z,67.85
2019-02-27T08:23:09.891Z,68.54
2019-02-27T08:25:42.539Z,68.40
2019-02-27T08:28:15.017Z,67.00
2019-02-27T08:30:48.501Z,65.71
2019-02-27T08:33:21.330Z,66.39
2019-02-27T08:35:55.229Z,65.98
2019-02-27T08:38:29.214Z,65.98
2019-02-27T08:41:01.844Z,65.26
2019-02-27T08:43:34.486Z,65.26
2019-02-27T08:46:06.817Z,64.36
2019-02-27T08:48:39.466Z,63.67
2019-02-27T08:51:12.032Z,63.35
2019-02-27T08:53:45.063Z,62.46
2019-02-27T08:56:17.422Z,62.97
2019-02-27T08:58:50.374Z,62.97
2019-02-27T09:01:22.851Z,63.03
2019-02-27T09:03:55.293Z,63.03
2019-02-27T09:06:28.262Z,62.42
2019-02-27T09:09:01.815Z,62.99
2019-02-27T09:11:37.196Z,63.37
2019-02-27T09:14:12.328Z,64.00
2019-02-27T09:16:44.986Z,64.00
2019-02-27T09:19:17.951Z,63.41
2019-02-27T09:21:51.073Z,64.86
2019-02-27T09:24:24.423Z,65.07
2019-02-27T09:26:58.107Z,64.17
2019-02-27T09:29:30.770Z,63.08
2019-02-27T09:32:03.704Z,63.08
2019-02-27T09:34:37.865Z,63.65
2019-02-27T09:37:16.361Z,63.65
2019-02-27T09:39:48.019Z,63.91
2019-02-27T09:42:20.942Z,63.91
2019-02-27T09:44:53.888Z,63.72
2019-02-27T09:47:28.632Z,62.95
2019-02-27T09:50:03.627Z,62.01
2019-02-27T09:52:37.713Z,63.34
2019-02-27T09:55:12.554Z,63.62
2019-02-27T09:57:48.012Z,64.18
2019-02-27T10:00:38.422Z,62.74
2019-02-27T10:03:13.634Z,63.49
2019-02-27T10:05:46.261Z,63.49
2019-02-27T10:08:19.109Z,63.70
2019-02-27T10:10:53.871Z,63.53
2019-02-27T10:13:32.000Z,64.03
2019-02-27T10:16:05.440Z,64.03
2019-02-27T10:18:38.533Z,64.10
2019-02-27T10:21:22.273Z,64.34
2019-02-27T10:23:58.055Z,64.34
2019-02-27T10:26:35.678Z,64.51
2019-02-27T10:29:10.888Z,62.85
2019-02-27T10:31:44.735Z,64.84
2019-02-27T10:34:20.852Z,64.84
2019-02-27T10:37:05.624Z,64.56
2019-02-27T10:39:41.626Z,65.04
2019-02-27T10:42:16.805Z,64.94
2019-02-27T10:44:49.521Z,64.94
2019-02-27T10:47:22.866Z,64.83
2019-02-27T10:50:01.889Z,64.79
2019-02-27T10:52:34.497Z,65.08
2019-02-27T10:55:11.278Z,65.03
2019-02-27T10:57:43.417Z,65.03
2019-02-27T11:00:20.111Z,64.91
2019-02-27T11:02:54.579Z,64.72
2019-02-27T11:05:34.250Z,64.44
2019-02-27T11:08:15.893Z,64.40
2019-02-27T11:10:49.130Z,64.67
2019-02-27T11:13:25.235Z,64.67
2019-02-27T11:15:59.217Z,66.21
2019-02-27T11:18:32.190Z,65.25
2019-02-27T11:21:05.712Z,65.50
2019-02-27T11:23:41.116Z,65.50
2019-02-27T11:26:14.023Z,65.90
2019-02-27T11:28:47.708Z,65.60
2019-02-27T11:31:22.072Z,65.47
2019-02-27T11:33:55.849Z,65.47
2019-02-27T11:36:30.955Z,61.67
2019-02-27T11:39:06.813Z,59.89
2019-02-27T11:41:42.156Z,52.15
2019-02-27T11:44:15.727Z,61.45
2019-02-27T11:46:58.425Z,60.65
2019-02-27T11:49:23.823Z,60.65
2019-02-27T11:51:57.086Z,61.17
2019-02-27T11:54:30.629Z,60.23
2019-02-27T11:57:02.573Z,63.79
2019-02-27T11:59:36.639Z,63.44
2019-02-27T12:02:09.047Z,63.44
2019-02-27T12:04:41.359Z,66.40
2019-02-27T12:07:17.243Z,66.30
2019-02-27T12:09:47.916Z,65.29
2019-02-27T12:12:22.507Z,64.80
2019-02-27T12:14:53.167Z,63.99
2019-02-27T12:17:25.682Z,64.72
2019-02-27T12:19:57.250Z,64.57
2019-02-27T12:22:32.955Z,64.57
2019-02-27T12:25:04.354Z,64.28
2019-02-27T12:27:48.273Z,69.23
2019-02-27T12:30:12.582Z,66.19
2019-02-27T12:32:44.108Z,66.78
2019-02-27T12:35:21.351Z,66.78
2019-02-27T12:37:53.123Z,71.32
2019-02-27T12:40:26.118Z,70.44
2019-02-27T12:42:57.980Z,67.67
2019-02-27T12:45:29.885Z,67.67
2019-02-27T12:48:01.625Z,67.57
2019-02-27T12:50:33.926Z,68.29
2019-02-27T12:53:08.915Z,68.29
2019-02-27T12:55:43.006Z,72.10
2019-02-27T12:58:17.067Z,71.97
2019-02-27T13:00:48.602Z,73.12
2019-02-27T13:03:21.117Z,74.38
2019-02-27T13:05:52.519Z,72.29
2019-02-27T13:08:24.064Z,74.22
2019-02-27T13:10:55.536Z,69.85
2019-02-27T13:13:26.933Z,69.85
2019-02-27T13:15:58.112Z,72.10
2019-02-27T13:18:32.068Z,69.97
2019-02-27T13:21:02.830Z,67.13
2019-02-27T13:23:36.405Z,68.63
2019-02-27T13:26:07.908Z,68.63
2019-02-27T13:28:39.722Z,65.76
2019-02-27T13:31:13.683Z,65.76
2019-02-27T13:33:46.411Z,66.93
2019-02-27T13:36:18.324Z,67.57
2019-02-27T13:38:52.176Z,67.57
2019-02-27T13:41:23.834Z,67.00
2019-02-27T13:43:58.181Z,67.08
2019-02-27T13:46:29.203Z,67.08
2019-02-27T13:49:01.473Z,66.75
2019-02-27T13:51:33.891Z,67.37
2019-02-27T13:54:06.561Z,66.80
2019-02-27T13:56:38.625Z,67.42
2019-02-27T13:59:11.045Z,67.42
2019-02-27T14:01:44.797Z,67.66
2019-02-27T14:04:19.592Z,67.66
2019-02-27T14:06:50.364Z,66.85
2019-02-27T14:09:21.958Z,66.85
2019-02-27T14:11:58.416Z,67.22
2019-02-27T14:14:27.461Z,67.91
2019-02-27T14:16:59.107Z,67.55
2019-02-27T14:19:30.643Z,67.73
2019-02-27T14:22:02.159Z,67.73
2019-02-27T14:24:34.835Z,67.97
2019-02-27T14:27:12.068Z,67.97
2019-02-27T14:29:45.918Z,68.67
2019-02-27T14:32:17.363Z,68.56
2019-02-27T14:34:48.966Z,68.06
2019-02-27T14:37:20.425Z,68.42
2019-02-27T14:39:51.991Z,69.04
2019-02-27T14:42:24.745Z,68.93
2019-02-27T14:44:56.163Z,68.93
2019-02-27T14:47:27.516Z,68.53
2019-02-27T14:50:00.141Z,68.95
2019-02-27T14:52:33.182Z,68.84
2019-02-27T14:55:04.998Z,69.62
2019-02-27T14:57:36.603Z,69.62
2019-02-27T15:00:11.210Z,69.14
2019-02-27T15:02:44.610Z,69.41
2019-02-27T15:05:16.291Z,69.41
2019-02-27T15:07:47.937Z,69.86
2019-02-27T15:10:19.746Z,71.25
2019-02-27T15:12:54.972Z,71.25
2019-02-27T15:15:26.382Z,70.57
2019-02-27T15:17:58.077Z,70.38
2019-02-27T15:20:29.923Z,70.38
2019-02-27T15:23:01.740Z,71.07
2019-02-27T15:25:33.445Z,71.22
2019-02-27T15:28:05.006Z,73.22
2019-02-27T15:30:37.115Z,73.22
2019-02-27T15:33:08.790Z,72.29
2019-02-27T15:35:40.436Z,72.39
2019-02-27T15:38:12.443Z,72.34
2019-02-27T15:40:44.307Z,72.34
2019-02-27T15:43:17.470Z,73.82
2019-02-27T15:45:49.196Z,75.65
2019-02-27T15:48:20.832Z,75.65
2019-02-27T15:50:56.337Z,81.45
2019-02-27T15:53:26.202Z,84.66
2019-02-27T15:55:59.634Z,85.26
2019-02-27T15:58:32.923Z,84.46
2019-02-27T16:01:04.361Z,84.79
2019-02-27T16:03:36.198Z,85.69
2019-02-27T16:06:07.951Z,85.69
2019-02-27T16:08:39.540Z,85.23
2019-02-27T16:11:11.056Z,84.85
2019-02-27T16:13:42.913Z,84.20
2019-02-27T16:16:14.515Z,84.20
2019-02-27T16:18:45.982Z,82.51
2019-02-27T16:21:17.778Z,83.31
2019-02-27T16:23:50.651Z,81.96
2019-02-27T16:26:27.027Z,79.60
2019-02-27T16:28:56.203Z,79.60
2019-02-27T16:31:27.898Z,80.33
2019-02-27T16:33:59.557Z,82.39
2019-02-27T16:36:36.276Z,82.39
2019-02-27T16:39:07.426Z,80.86
2019-02-27T16:41:41.193Z,80.86
2019-02-27T16:44:12.699Z,82.75
2019-02-27T16:46:44.938Z,83.29
2019-02-27T16:49:16.782Z,82.60
2019-02-27T16:51:48.373Z,82.94
2019-02-27T16:54:19.715Z,82.94
2019-02-27T16:56:51.463Z,82.13
2019-02-27T16:59:23.640Z,81.14
2019-02-27T17:01:56.799Z,81.14
2019-02-27T17:04:28.178Z,81.19
2019-02-27T17:06:59.722Z,80.29
2019-02-27T17:09:31.610Z,80.29
2019-02-27T17:12:04.269Z,80.48
2019-02-27T17:14:39.272Z,81.45
2019-02-27T17:17:11.698Z,83.00
2019-02-27T17:19:43.351Z,82.26
2019-02-27T17:22:15.383Z,82.26
2019-02-27T17:24:47.193Z,83.24
2019-02-27T17:27:19.005Z,84.26
2019-02-27T17:29:50.540Z,84.26
2019-02-27T17:32:22.364Z,83.08
2019-02-27T17:34:54.059Z,84.23
2019-02-27T17:37:25.849Z,84.23
2019-02-27T17:39:59.295Z,84.63
2019-02-27T17:42:31.986Z,84.63
2019-02-27T17:45:03.714Z,83.63
2019-02-27T17:47:35.978Z,83.63
2019-02-27T17:50:07.897Z,83.87
2019-02-27T17:52:39.644Z,83.87
2019-02-27T17:55:11.600Z,84.27
2019-02-27T17:57:43.018Z,85.18
2019-02-27T18:00:21.605Z,85.18
2019-02-27T18:02:54.156Z,85.37
2019-02-27T18:05:27.416Z,85.81
2019-02-27T18:07:58.788Z,85.50
2019-02-27T18:10:30.237Z,85.50
2019-02-27T18:13:02.099Z,86.88
2019-02-27T18:15:33.475Z,86.26
2019-02-27T18:18:07.501Z,86.70
2019-02-27T18:24:38.146Z,85.97
2019-02-27T18:27:10.001Z,85.97
2019-02-27T18:29:43.730Z,85.39
2019-02-27T18:32:14.912Z,85.71
2019-02-27T18:34:47.357Z,85.63
2019-02-27T18:37:21.696Z,85.84
2019-02-27T18:39:53.456Z,85.84
2019-02-27T18:42:25.001Z,86.68
2019-02-27T18:44:57.658Z,85.81
2019-02-27T18:47:28.944Z,84.33
2019-02-27T18:50:00.372Z,83.81
2019-02-27T18:52:32.302Z,83.81
2019-02-27T18:55:04.065Z,83.92
2019-02-27T18:57:35.598Z,84.09
2019-02-27T19:00:09.336Z,83.54
2019-02-27T19:02:41.438Z,82.77
2019-02-27T19:05:13.418Z,83.28
2019-02-27T19:07:45.320Z,83.28
2019-02-27T19:10:18.557Z,83.87
2019-02-27T19:12:50.248Z,84.34
2019-02-27T19:15:22.352Z,84.34
2019-02-27T19:17:54.390Z,85.03
2019-02-27T19:20:28.438Z,85.33
2019-02-27T19:23:00.473Z,85.33
2019-02-27T19:25:34.767Z,86.54
2019-02-27T19:28:05.930Z,86.54
2019-02-27T19:30:38.688Z,86.76
2019-02-27T19:33:11.344Z,86.93
2019-02-27T19:35:42.999Z,86.60
2019-02-27T19:38:14.768Z,85.03
2019-02-27T19:40:46.293Z,84.87
2019-02-27T19:43:18.142Z,84.87
2019-02-27T19:45:51.277Z,85.07
2019-02-27T19:48:23.017Z,84.66
2019-02-27T19:50:54.747Z,84.66
2019-02-27T19:53:26.475Z,84.53
2019-02-27T19:56:00.730Z,84.53
2019-02-27T19:58:31.625Z,85.62
2019-02-27T20:01:08.733Z,85.89
2019-02-27T20:03:37.560Z,86.64
2019-02-27T20:06:09.397Z,85.37
2019-02-27T20:08:44.750Z,85.59
2019-02-27T20:11:14.648Z,85.69
2019-02-27T20:13:46.944Z,85.69
2019-02-27T20:16:20.701Z,85.96
2019-02-27T20:18:54.852Z,86.06
2019-02-27T20:21:25.048Z,85.98
2019-02-27T20:24:01.478Z,85.37
2019-02-27T20:26:33.939Z,85.19
2019-02-27T20:29:06.445Z,85.19
2019-02-27T20:31:37.899Z,84.94
2019-02-27T20:34:11.589Z,84.94
2019-02-27T20:36:42.956Z,84.39
2019-02-27T20:39:14.740Z,84.57
2019-02-27T20:41:46.489Z,84.55
2019-02-27T20:44:19.046Z,84.55
2019-02-27T20:46:50.929Z,84.54
2019-02-27T20:49:22.469Z,84.54
2019-02-27T20:51:54.167Z,85.24
2019-02-27T20:54:25.811Z,85.50
2019-02-27T20:56:57.511Z,85.50
2019-02-27T20:59:29.119Z,86.07
2019-02-27T21:02:00.684Z,86.29
2019-02-27T21:04:35.255Z,85.67
2019-02-27T21:07:06.018Z,86.41
2019-02-27T21:09:37.899Z,85.54
2019-02-27T21:12:09.551Z,85.57
2019-02-27T21:14:41.370Z,85.57
2019-02-27T21:17:12.917Z,85.67
2019-02-27T21:19:44.600Z,85.76
2019-02-27T21:22:16.943Z,86.81
2019-02-27T21:24:48.460Z,86.31
2019-02-27T21:27:21.139Z,87.23
2019-02-27T21:29:53.616Z,86.69
2019-02-27T21:32:25.497Z,86.69
2019-02-27T21:34:57.320Z,86.56
2019-02-27T21:37:29.133Z,87.29
2019-02-27T21:40:03.059Z,87.29
2019-02-27T21:42:34.272Z,86.64
2019-02-27T21:45:06.507Z,87.18
2019-02-27T21:47:38.856Z,87.51
2019-02-27T21:50:11.564Z,87.51
2019-02-27T21:52:43.195Z,87.37
2019-02-27T21:55:14.996Z,87.37
2019-02-27T21:57:46.968Z,87.03
2019-02-27T22:00:22.516Z,88.17
2019-02-27T22:02:55.267Z,88.40
2019-02-27T22:05:26.932Z,88.83
2019-02-27T22:07:58.652Z,88.83
2019-02-27T22:10:32.292Z,87.59
2019-02-27T22:13:09.302Z,87.70
2019-02-27T22:15:37.398Z,87.67
2019-02-27T22:18:11.779Z,87.67
2019-02-27T22:20:42.332Z,88.60
2019-02-27T22:23:14.987Z,88.60
2019-02-27T22:25:46.816Z,88.63
2019-02-27T22:28:19.952Z,88.63
2019-02-27T22:30:51.099Z,88.55
2019-02-27T22:33:23.174Z,88.28
2019-02-27T22:35:54.866Z,88.06
2019-02-27T22:38:26.843Z,88.06
2019-02-27T22:40:58.691Z,88.61
2019-02-27T22:43:30.278Z,88.62
2019-02-27T22:46:01.896Z,88.62
2019-02-27T22:48:33.304Z,89.67
2019-02-27T22:51:04.850Z,89.21
2019-02-27T22:53:36.446Z,88.57
2019-02-27T22:56:08.119Z,89.28
2019-02-27T22:58:39.497Z,88.83
2019-02-27T23:01:22.077Z,88.71
2019-02-27T23:04:02.746Z,88.71
2019-02-27T23:06:34.472Z,88.65
2019-02-27T23:09:09.133Z,89.22
2019-02-27T23:11:41.556Z,88.52
2019-02-27T23:14:13.348Z,88.52
2019-02-27T23:16:46.762Z,87.99
2019-02-27T23:19:18.053Z,88.22
2019-02-27T23:21:49.785Z,88.22
2019-02-27T23:24:21.686Z,88.86
2019-02-27T23:26:54.775Z,89.85
2019-02-27T23:29:26.654Z,89.85
2019-02-27T23:31:58.341Z,89.61
2019-02-27T23:34:29.959Z,90.40
2019-02-27T23:37:01.551Z,90.44
2019-02-27T23:39:33.342Z,89.92
2019-02-27T23:42:05.292Z,89.61
2019-02-27T23:44:38.782Z,89.61
2019-02-27T23:47:10.528Z,88.11
2019-02-27T23:49:42.436Z,88.90
2019-02-27T23:52:14.776Z,88.90
2019-02-27T23:54:46.363Z,89.27
2019-02-27T23:57:18.077Z,89.37
2019-02-27T23:59:49.626Z,88.20
